EDT,Max TemperatureF,Mean TemperatureF,Min TemperatureF,Max Dew PointF,MeanDew PointF,Min DewpointF,Max Humidity, Mean Humidity, Min Humidity, Max Sea Level PressureIn, Mean Sea Level PressureIn, Min Sea Level PressureIn, Max VisibilityMiles, Mean VisibilityMiles, Min VisibilityMiles, Max Wind SpeedMPH, Mean Wind SpeedMPH, Max Gust SpeedMPH,PrecipitationIn, CloudCover, Events, WindDirDegrees
2013-3-1,30,27,24,27,19,16,80,69,51,30.01,29.92,29.79,10,9,9,21,13,28,0.00,5,Snow,331
2013-3-2,28,23,18,18,14,10,74,68,52,30.02,29.99,29.94,10,9,9,14,11,24,0.00,7,Snow,331
2013-3-3,25,22,19,19,15,10,80,71,47,29.96,29.93,29.90,10,8,3,16,11,25,0.00,8,Snow,321
2013-3-4,32,26,21,19,16,14,80,68,43,30.11,30.02,29.96,10,9,9,20,11,26,0.00,6,Snow,295
2013-3-5,33,27,22,27,20,16,80,71,49,30.14,30.08,30.01,10,9,9,26,10,32,0.00,2,,50
2013-3-6,40,35,30,32,29,25,87,75,55,30.19,30.10,29.99,10,9,9,22,16,26,0.00,7,Rain,58
2013-3-7,38,36,33,36,32,28,100,88,71,30.32,30.26,30.19,10,7,2,13,7,17,0.03,8,Rain-Snow,87
2013-3-8,43,38,33,32,30,25,93,73,43,30.43,30.38,30.32,10,9,9,13,8,,0.00,6,Rain,327
2013-3-9,42,36,29,34,31,28,93,82,58,30.43,30.36,30.22,10,9,9,16,7,,0.00,1,,51
2013-3-10,48,42,35,36,34,32,87,75,58,30.19,30.05,29.95,10,9,9,17,13,,0.00,6,Rain,73
2013-3-11,46,44,41,39,37,34,93,78,55,29.95,29.77,29.62,10,9,5,15,9,18,0.12,8,Rain,81
2013-3-12,41,37,33,41,34,30,100,87,70,29.89,29.82,29.65,10,8,4,21,15,23,0.02,8,Rain-Snow,235
2013-3-13,36,30,23,32,27,9,100,80,45,30.01,29.87,29.84,10,7,1,29,12,37,0.01,8,Rain-Snow,253
2013-3-14,34,26,18,14,10,-4,74,56,10,30.12,30.07,30.02,10,9,5,28,14,33,0.00,4,Snow,305
2013-3-15,43,34,26,28,23,12,81,64,31,30.06,29.84,29.73,10,9,9,29,15,41,0.00,7,Rain-Snow,260
2013-3-16,29,26,23,19,16,9,80,69,39,30.00,29.92,29.89,10,7,2,16,10,21,0.00,7,Snow,56
2013-3-17,31,26,21,16,10,3,74,51,25,30.37,30.19,30.01,10,9,9,15,9,22,0.00,3,Snow,322
2013-3-18,34,28,21,32,26,5,100,83,34,30.35,29.88,29.68,10,5,1,31,19,41,0.12,7,Rain-Snow,86
2013-3-19,37,32,26,36,27,18,100,82,62,29.83,29.71,29.60,10,7,2,31,18,37,0.01,8,Rain-Snow,237
2013-3-20,34,29,24,23,19,10,86,67,38,29.86,29.83,29.80,10,8,5,23,17,30,0.00,7,Snow,264
2013-3-21,32,26,21,27,23,14,86,78,59,29.84,29.74,29.71,10,6,1,20,15,23,0.00,7,Snow,260
2013-3-22,37,32,26,25,22,19,86,70,41,29.95,29.83,29.76,10,9,9,21,13,26,0.00,8,Snow,287
2013-3-23,43,36,30,25,22,18,80,61,34,30.05,29.99,29.94,10,9,9,18,11,25,0.00,4,Snow,305
2013-3-24,39,33,27,25,22,18,80,63,31,30.06,29.94,29.78,10,9,9,14,7,,0.00,3,,17
2013-3-25,42,38,33,30,26,23,75,61,42,29.77,29.71,29.67,10,9,9,25,16,31,0.00,5,,68
2013-3-26,50,44,37,27,24,19,61,47,18,29.97,29.86,29.77,10,9,9,14,11,21,0.00,5,,326
2013-3-27,46,40,35,34,29,25,87,66,33,30.09,30.02,29.94,10,9,9,22,12,29,0.01,8,Rain,304
2013-3-28,46,40,34,31,29,23,81,63,35,30.22,30.15,30.08,10,9,9,15,9,17,0.00,8,,305
2013-3-29,53,45,37,32,26,18,70,52,21,30.22,30.19,30.13,10,9,9,15,9,22,0.00,4,,284
2013-3-30,50,42,33,34,27,19,81,59,20,30.22,30.15,30.03,10,9,9,15,7,,0.00,0,,215
2013-3-31,47,42,36,39,34,28,93,73,44,30.02,29.73,29.59,10,8,3,22,5,,0.04,6,Rain,145